Time;durP1;ratioP1;P1;durP2;ratioP2;P2;SDS_P1;SDS_P2;PMS_P1;PMS_P2;Temp;Humidity;BMP_temperature;BMP_pressure;BME280_temperature;BME280_humidity;BME280_pressure;Samples;Min_cycle;Max_cycle;Signal;HPM_P1;HPM_P2
2021/01/27 00:01:45;;;;;;;8.13;3.78;;;19.90;43.00;;;;;;5062959;28;20487;-64
2021/01/27 00:04:10;;;;;;;3.63;3.08;;;19.90;43.00;;;;;;5044428;28;20052;-63
2021/01/27 00:06:36;;;;;;;5.43;3.33;;;19.90;43.00;;;;;;5061608;28;20045;-64
2021/01/27 00:09:02;;;;;;;4.20;2.90;;;19.90;43.10;;;;;;5063760;28;20558;-64
2021/01/27 00:11:27;;;;;;;4.22;2.72;;;19.90;43.10;;;;;;5062852;28;20552;-64
2021/01/27 00:13:53;;;;;;;6.50;3.10;;;19.80;43.00;;;;;;5055699;28;20566;-64
2021/01/27 00:16:18;;;;;;;5.25;2.85;;;19.80;43.00;;;;;;5062307;28;20614;-64
2021/01/27 00:18:44;;;;;;;4.80;2.72;;;19.80;43.00;;;;;;5063095;28;20045;-64
2021/01/27 00:21:09;;;;;;;5.45;2.78;;;19.80;43.00;;;;;;5063179;28;20028;-65
2021/01/27 00:23:35;;;;;;;4.38;2.55;;;19.80;43.00;;;;;;5062482;28;20861;-64
2021/01/27 00:26:00;;;;;;;5.53;2.95;;;19.80;42.90;;;;;;5063605;28;20043;-65
2021/01/27 00:28:26;;;;;;;5.22;2.20;;;19.80;43.00;;;;;;5063092;28;20542;-64
2021/01/27 00:30:51;;;;;;;3.75;1.98;;;19.70;43.00;;;;;;5045034;28;20130;-65
2021/01/27 00:33:17;;;;;;;4.30;2.30;;;19.70;43.00;;;;;;5062382;28;20119;-65
2021/01/27 00:35:45;;;;;;;2.92;2.00;;;19.70;43.00;;;;;;5061694;28;20049;-64
2021/01/27 00:38:13;;;;;;;2.80;2.28;;;19.70;43.00;;;;;;5045216;28;20689;-64
2021/01/27 00:40:38;;;;;;;4.80;2.42;;;19.70;43.00;;;;;;5062758;28;20044;-64
2021/01/27 00:43:04;;;;;;;3.40;2.03;;;19.70;43.00;;;;;;5066616;28;20040;-64
2021/01/27 00:45:29;;;;;;;4.43;2.42;;;19.70;43.00;;;;;;5066672;28;20037;-61
2021/01/27 00:47:55;;;;;;;4.13;2.08;;;19.60;43.00;;;;;;5065359;28;20036;-62
2021/01/27 00:50:20;;;;;;;3.42;1.83;;;19.60;43.10;;;;;;5065813;28;20043;-64
2021/01/27 00:52:46;;;;;;;3.00;2.20;;;19.60;43.10;;;;;;5066007;28;20033;-65
2021/01/27 00:55:26;;;;;;;6.50;2.03;;;19.60;43.00;;;;;;5065700;28;20698;-63
2021/01/27 00:57:51;;;;;;;2.33;1.67;;;19.60;43.10;;;;;;5060480;28;20054;-64
2021/01/27 01:00:22;;;;;;;3.22;1.90;;;19.60;43.00;;;;;;5047982;28;20745;-64
2021/01/27 01:02:49;;;;;;;4.18;1.80;;;19.60;43.00;;;;;;5065225;28;20039;-64
2021/01/27 01:05:18;;;;;;;3.03;1.75;;;19.50;43.10;;;;;;5065961;28;20056;-64
2021/01/27 01:07:47;;;;;;;3.13;1.77;;;19.50;43.10;;;;;;5058137;28;20040;-65
2021/01/27 01:10:18;;;;;;;2.38;1.42;;;19.50;43.10;;;;;;5065840;28;20429;-64
2021/01/27 01:12:43;;;;;;;2.35;1.65;;;19.50;42.90;;;;;;5041129;28;20118;-64
2021/01/27 01:15:09;;;;;;;3.50;1.42;;;19.50;42.90;;;;;;5065961;28;20064;-64
2021/01/27 01:17:35;;;;;;;2.58;1.60;;;19.50;42.90;;;;;;5065453;28;20513;-60
2021/01/27 01:20:00;;;;;;;2.33;1.73;;;19.50;43.00;;;;;;5065244;28;20333;-64
2021/01/27 01:22:26;;;;;;;2.42;1.58;;;19.50;43.10;;;;;;5065744;28;20051;-64
2021/01/27 01:24:51;;;;;;;2.58;1.35;;;19.50;43.00;;;;;;5065120;28;20534;-64
2021/01/27 01:27:17;;;;;;;2.38;1.50;;;19.50;43.00;;;;;;5065033;28;21576;-63
2021/01/27 01:29:42;;;;;;;1.60;1.40;;;19.40;42.90;;;;;;5065728;28;20443;-64
2021/01/27 01:32:08;;;;;;;2.80;1.52;;;19.40;43.00;;;;;;5065064;28;20040;-64
2021/01/27 01:34:33;;;;;;;2.10;1.60;;;19.40;43.00;;;;;;5065771;28;20048;-64
2021/01/27 01:36:59;;;;;;;4.18;1.40;;;19.50;43.00;;;;;;5064925;28;20384;-65
2021/01/27 01:39:24;;;;;;;1.55;1.35;;;19.40;43.10;;;;;;5065526;28;20043;-63
2021/01/27 01:41:50;;;;;;;3.15;1.58;;;19.40;43.10;;;;;;5065335;28;20046;-61
2021/01/27 01:44:15;;;;;;;3.25;1.50;;;19.40;43.10;;;;;;5065343;28;20028;-64
2021/01/27 01:46:41;;;;;;;2.67;1.50;;;19.40;43.10;;;;;;5064375;28;20044;-64
2021/01/27 01:49:08;;;;;;;2.65;1.05;;;19.40;43.20;;;;;;5064989;28;20041;-64
2021/01/27 01:51:44;;;;;;;1.50;1.02;;;19.30;43.10;;;;;;5064410;28;20039;-63
2021/01/27 01:54:33;;;;;;;1.98;1.50;;;19.40;43.10;;;;;;5064635;28;20078;-64
2021/01/27 01:57:01;;;;;;;1.27;1.17;;;19.40;43.10;;;;;;5026843;28;20048;-64
2021/01/27 01:59:27;;;;;;;2.17;1.40;;;19.30;43.10;;;;;;5044065;28;20037;-64
2021/01/27 02:02:01;;;;;;;2.20;1.48;;;19.30;43.20;;;;;;5046669;28;20037;-62
2021/01/27 02:04:30;;;;;;;1.80;1.30;;;19.30;43.20;;;;;;5047118;28;20375;-62
2021/01/27 02:06:56;;;;;;;1.90;1.45;;;19.30;43.20;;;;;;5029939;28;20032;-65
2021/01/27 02:09:21;;;;;;;2.50;1.15;;;19.30;43.20;;;;;;5045821;28;20448;-63
2021/01/27 02:12:24;;;;;;;1.67;1.45;;;19.20;43.20;;;;;;5064305;28;20564;-64
2021/01/27 02:15:01;;;;;;;2.50;1.38;;;19.20;43.30;;;;;;5005202;28;22095;-65
2021/01/27 02:17:48;;;;;;;1.30;0.98;;;19.20;43.30;;;;;;5027069;28;20024;-64
2021/01/27 02:20:41;;;;;;;1.38;1.00;;;19.20;43.30;;;;;;5049177;28;20028;-64
2021/01/27 02:23:19;;;;;;;2.25;1.00;;;19.20;43.30;;;;;;5044090;28;20463;-65
2021/01/27 02:26:19;;;;;;;1.60;1.00;;;19.10;43.30;;;;;;5039039;28;20223;-65
2021/01/27 02:29:12;;;;;;;3.85;1.40;;;19.10;43.40;;;;;;5040950;28;20039;-65
2021/01/27 02:32:01;;;;;;;2.35;0.98;;;19.10;43.40;;;;;;5045784;28;21743;-62
2021/01/27 02:34:41;;;;;;;1.23;0.80;;;19.00;43.40;;;;;;5030332;28;20612;-64
2021/01/27 02:37:08;;;;;;;0.98;0.80;;;19.00;43.40;;;;;;5058049;28;20115;-64
2021/01/27 02:39:38;;;;;;;1.38;1.00;;;18.90;44.10;;;;;;5030440;28;20380;-64
2021/01/27 02:42:17;;;;;;;1.23;1.00;;;18.90;43.40;;;;;;5030253;28;20119;-64
2021/01/27 02:44:50;;;;;;;1.13;1.00;;;18.90;43.40;;;;;;5039569;28;20600;-65
2021/01/27 02:47:21;;;;;;;1.73;1.00;;;18.80;43.50;;;;;;5045811;28;20040;-65
2021/01/27 02:49:49;;;;;;;1.10;0.90;;;18.90;43.50;;;;;;5038624;28;20067;-65
2021/01/27 02:52:26;;;;;;;1.13;0.80;;;18.90;43.50;;;;;;5029976;28;20495;-65
2021/01/27 02:54:56;;;;;;;2.08;1.20;;;18.80;43.50;;;;;;5029797;28;20051;-64
2021/01/27 02:57:25;;;;;;;0.80;0.77;;;18.80;43.50;;;;;;5045731;28;20055;-64
2021/01/27 03:00:07;;;;;;;1.48;1.23;;;18.80;43.50;;;;;;5045260;28;20036;-64
2021/01/27 03:02:37;;;;;;;1.20;0.90;;;18.80;43.50;;;;;;5038564;28;20071;-64
2021/01/27 03:05:17;;;;;;;1.48;0.95;;;18.70;43.50;;;;;;5046436;28;20063;-64
2021/01/27 03:07:43;;;;;;;1.77;0.90;;;18.70;43.50;;;;;;5039841;28;21610;-64
2021/01/27 03:10:15;;;;;;;1.38;0.82;;;18.70;43.60;;;;;;5046077;28;20048;-60
2021/01/27 03:12:41;;;;;;;1.33;0.90;;;18.70;43.60;;;;;;5037650;28;20029;-64
2021/01/27 03:15:08;;;;;;;2.55;1.05;;;18.60;43.50;;;;;;5063605;28;20047;-65
2021/01/27 03:17:33;;;;;;;1.67;1.00;;;18.60;43.70;;;;;;5063186;28;20036;-65
2021/01/27 03:20:06;;;;;;;1.40;0.85;;;18.60;43.70;;;;;;5029623;28;20029;-65
2021/01/27 03:22:45;;;;;;;2.00;0.80;;;18.70;43.70;;;;;;5038388;28;20119;-65
2021/01/27 03:25:22;;;;;;;2.08;0.80;;;18.70;43.70;;;;;;5047363;28;20552;-65
2021/01/27 03:28:10;;;;;;;1.48;1.10;;;18.80;43.50;;;;;;5037608;28;20384;-62
2021/01/27 03:30:35;;;;;;;3.22;0.90;;;18.90;43.40;;;;;;5062945;28;20040;-65
2021/01/27 03:33:14;;;;;;;0.80;0.68;;;19.00;43.30;;;;;;5029048;28;20378;-64
2021/01/27 03:35:48;;;;;;;1.55;0.80;;;19.20;43.20;;;;;;5037975;28;20041;-65
2021/01/27 03:38:27;;;;;;;0.88;0.75;;;19.30;43.10;;;;;;5046616;28;20086;-65
2021/01/27 03:40:55;;;;;;;0.85;0.82;;;19.30;43.00;;;;;;5027010;28;20040;-65
2021/01/27 03:43:30;;;;;;;0.70;0.57;;;19.40;42.90;;;;;;5041264;28;20052;-64
2021/01/27 03:46:08;;;;;;;1.10;0.77;;;19.50;42.90;;;;;;5046177;28;20705;-65
2021/01/27 03:48:45;;;;;;;0.95;0.80;;;19.50;42.80;;;;;;5030596;28;20056;-63
2021/01/27 03:51:11;;;;;;;1.05;0.93;;;19.60;42.80;;;;;;5028933;28;20055;-64
2021/01/27 03:53:36;;;;;;;0.95;0.70;;;19.70;42.60;;;;;;5063125;28;20518;-65
2021/01/27 03:56:05;;;;;;;1.38;1.08;;;19.70;42.60;;;;;;5062804;28;20040;-65
2021/01/27 03:58:41;;;;;;;0.52;0.50;;;19.80;42.60;;;;;;5063546;28;20024;-65
2021/01/27 04:01:19;;;;;;;2.08;0.80;;;19.90;42.50;;;;;;5045419;28;20040;-65
2021/01/27 04:03:45;;;;;;;1.30;0.70;;;19.90;42.40;;;;;;5038959;28;20118;-64
2021/01/27 04:06:12;;;;;;;1.90;0.60;;;20.00;42.30;;;;;;5062737;28;20074;-65
2021/01/27 04:08:37;;;;;;;2.03;0.80;;;20.00;42.20;;;;;;5062984;28;20044;-65
2021/01/27 04:11:03;;;;;;;0.98;0.60;;;20.10;42.10;;;;;;5062843;28;20056;-64
2021/01/27 04:13:29;;;;;;;1.50;0.60;;;20.10;42.70;;;;;;5062980;28;20040;-64
2021/01/27 04:15:55;;;;;;;0.95;0.80;;;20.10;42.00;;;;;;5065675;28;20036;-65
2021/01/27 04:18:20;;;;;;;1.45;0.80;;;20.10;41.90;;;;;;5066997;28;20032;-65
2021/01/27 04:20:46;;;;;;;1.90;0.75;;;20.10;41.90;;;;;;5067239;28;20033;-65
2021/01/27 04:23:11;;;;;;;1.30;0.75;;;20.10;41.90;;;;;;5066943;28;20028;-64
2021/01/27 04:25:37;;;;;;;0.90;0.77;;;20.00;41.90;;;;;;5065696;28;20037;-65
2021/01/27 04:28:03;;;;;;;0.93;0.68;;;20.00;41.90;;;;;;5066326;28;20100;-64
2021/01/27 04:30:30;;;;;;;0.82;0.63;;;20.00;41.90;;;;;;5066905;28;20051;-64
2021/01/27 04:32:56;;;;;;;1.30;0.70;;;20.00;41.90;;;;;;5065924;28;20477;-64
2021/01/27 04:35:22;;;;;;;1.88;0.77;;;20.00;41.80;;;;;;5066784;28;20041;-65
2021/01/27 04:37:47;;;;;;;0.88;0.57;;;19.90;41.80;;;;;;5066693;28;20568;-65
2021/01/27 04:40:19;;;;;;;1.10;0.75;;;19.90;41.90;;;;;;5065945;28;20119;-64
2021/01/27 04:42:44;;;;;;;1.70;0.70;;;19.80;41.90;;;;;;5049289;28;20376;-65
2021/01/27 04:45:10;;;;;;;0.63;0.63;;;19.90;42.00;;;;;;5032104;28;20025;-65
2021/01/27 04:47:58;;;;;;;0.93;0.70;;;19.90;41.90;;;;;;5066420;28;20040;-64
2021/01/27 04:50:45;;;;;;;1.73;0.70;;;19.80;42.00;;;;;;5066000;28;20032;-68
2021/01/27 04:53:24;;;;;;;1.90;0.93;;;19.80;42.00;;;;;;5016339;28;20029;-66
2021/01/27 04:56:14;;;;;;;0.90;0.70;;;19.80;41.90;;;;;;5046953;28;20445;-67
2021/01/27 04:58:45;;;;;;;1.05;0.73;;;19.80;41.90;;;;;;5058387;28;20028;-65
2021/01/27 05:01:10;;;;;;;1.55;1.10;;;19.70;41.80;;;;;;5048146;28;20039;-65
2021/01/27 05:03:51;;;;;;;1.35;0.85;;;19.70;41.90;;;;;;5066505;28;20029;-65
2021/01/27 05:06:22;;;;;;;1.15;0.88;;;19.70;42.00;;;;;;5015418;28;20033;-64
2021/01/27 05:08:56;;;;;;;0.77;0.70;;;19.70;42.00;;;;;;5064535;28;20033;-65
2021/01/27 05:11:21;;;;;;;1.58;0.80;;;19.60;42.20;;;;;;5047470;28;20035;-64
2021/01/27 05:13:50;;;;;;;1.35;0.65;;;19.60;42.30;;;;;;5048327;28;20033;-66
2021/01/27 05:16:19;;;;;;;1.23;0.80;;;19.60;42.50;;;;;;5065587;28;20046;-66
2021/01/27 05:18:45;;;;;;;2.47;1.00;;;19.60;42.50;;;;;;5065915;28;20060;-66
2021/01/27 05:21:37;;;;;;;1.13;0.60;;;19.60;42.60;;;;;;5047604;28;20123;-65
2021/01/27 05:24:03;;;;;;;1.83;0.80;;;19.50;42.70;;;;;;5043297;28;20037;-65
2021/01/27 05:26:41;;;;;;;2.50;1.20;;;19.50;42.80;;;;;;5063881;28;20388;-65
2021/01/27 05:29:16;;;;;;;1.10;0.80;;;19.50;42.90;;;;;;5031400;28;20514;-65
2021/01/27 05:32:02;;;;;;;4.80;0.70;;;19.50;43.00;;;;;;5024413;28;20426;-65
2021/01/27 05:34:35;;;;;;;1.60;0.90;;;19.50;43.10;;;;;;5065436;28;20086;-63
2021/01/27 05:37:01;;;;;;;4.80;1.10;;;19.50;43.10;;;;;;5065113;28;20539;-65
2021/01/27 05:39:28;;;;;;;6.60;0.90;;;19.50;43.20;;;;;;5047630;28;20032;-65
2021/01/27 05:42:19;;;;;;;5.43;1.50;;;19.50;43.30;;;;;;5065651;28;20502;-66
2021/01/27 05:44:45;;;;;;;5.13;1.20;;;19.50;43.30;;;;;;5025249;28;20421;-65
2021/01/27 05:47:24;;;;;;;4.15;0.93;;;19.50;43.40;;;;;;5065067;28;20037;-64
2021/01/27 05:49:50;;;;;;;8.60;1.60;;;19.40;43.40;;;;;;5059305;28;20036;-64
2021/01/27 05:52:18;;;;;;;5.70;1.30;;;19.40;43.40;;;;;;5046980;28;20028;-63
2021/01/27 05:54:43;;;;;;;6.50;1.38;;;19.40;43.40;;;;;;5064391;28;20044;-64
2021/01/27 05:57:19;;;;;;;4.07;1.35;;;19.40;43.50;;;;;;5064608;28;20125;-66
2021/01/27 05:59:46;;;;;;;9.13;1.58;;;19.40;43.50;;;;;;5047164;28;20048;-65
2021/01/27 06:02:11;;;;;;;7.10;1.30;;;19.40;43.60;;;;;;5064665;28;20056;-65
2021/01/27 06:04:37;;;;;;;6.55;1.83;;;19.40;43.60;;;;;;5064581;28;20097;-65
2021/01/27 06:07:05;;;;;;;17.48;3.50;;;19.40;43.60;;;;;;5046550;28;20841;-65
2021/01/27 06:09:32;;;;;;;13.93;3.90;;;19.40;43.50;;;;;;5046749;28;20032;-65
2021/01/27 06:12:05;;;;;;;17.45;5.40;;;19.40;43.40;;;;;;5064820;28;20033;-65
2021/01/27 06:14:31;;;;;;;17.60;5.50;;;19.40;43.40;;;;;;5064990;28;20040;-66
2021/01/27 06:16:56;;;;;;;16.67;6.43;;;19.40;43.50;;;;;;5030299;28;20025;-65
2021/01/27 06:19:23;;;;;;;29.27;11.43;;;19.40;43.50;;;;;;5029952;28;20038;-65
2021/01/27 06:22:13;;;;;;;36.85;16.25;;;19.40;43.60;;;;;;5046021;28;20106;-65
2021/01/27 06:24:53;;;;;;;42.05;17.65;;;19.40;43.60;;;;;;5064265;28;20120;-65
2021/01/27 06:27:35;;;;;;;43.67;19.08;;;19.40;43.60;;;;;;5030808;28;20115;-65
2021/01/27 06:30:10;;;;;;;40.60;18.50;;;19.40;43.60;;;;;;5045636;28;21702;-66
2021/01/27 06:32:47;;;;;;;36.45;17.92;;;19.40;43.70;;;;;;5064549;28;20052;-66
2021/01/27 06:35:15;;;;;;;34.47;16.50;;;19.30;43.60;;;;;;5047888;28;20104;-65
2021/01/27 06:38:12;;;;;;;37.78;16.85;;;19.30;44.30;;;;;;5064445;28;20021;-66
2021/01/27 06:40:59;;;;;;;28.65;14.05;;;19.30;43.60;;;;;;5063820;28;20502;-66
2021/01/27 06:43:47;;;;;;;29.88;14.00;;;19.30;43.60;;;;;;5031586;28;20082;-65
2021/01/27 06:46:30;;;;;;;27.10;12.98;;;19.20;43.60;;;;;;5048329;28;20103;-62
2021/01/27 06:49:37;;;;;;;26.98;13.10;;;19.20;43.70;;;;;;5064535;28;20024;-65
2021/01/27 06:52:34;;;;;;;23.40;11.13;;;19.20;43.80;;;;;;5030018;28;20024;-65
2021/01/27 06:55:54;;;;;;;27.02;10.80;;;19.10;43.80;;;;;;5063925;28;20032;-65
2021/01/27 06:58:41;;;;;;;22.48;10.60;;;19.10;43.90;;;;;;5014359;28;20028;-65
2021/01/27 07:01:34;;;;;;;25.88;10.93;;;19.10;44.00;;;;;;5045203;28;20432;-65
2021/01/27 07:04:30;;;;;;;26.52;10.13;;;19.00;44.10;;;;;;5064475;28;20254;-65
2021/01/27 07:07:10;;;;;;;22.92;9.75;;;19.00;44.10;;;;;;5048722;28;20029;-65
2021/01/27 07:09:48;;;;;;;26.00;9.18;;;19.00;44.20;;;;;;5026775;28;20033;-65
2021/01/27 07:12:16;;;;;;;26.13;9.73;;;19.00;44.20;;;;;;5064416;28;20028;-65
2021/01/27 07:15:13;;;;;;;23.77;9.00;;;19.00;44.30;;;;;;5063970;28;20028;-65
2021/01/27 07:18:00;;;;;;;21.55;9.20;;;19.00;44.30;;;;;;5045935;28;21357;-65
2021/01/27 07:20:42;;;;;;;25.20;9.20;;;19.00;44.30;;;;;;5064533;28;20087;-65
2021/01/27 07:23:27;;;;;;;23.48;9.05;;;18.90;44.20;;;;;;5046718;28;20111;-65
2021/01/27 07:26:09;;;;;;;20.30;7.50;;;18.90;44.30;;;;;;5047252;28;20029;-63
2021/01/27 07:29:01;;;;;;;24.00;8.65;;;18.90;44.30;;;;;;5031496;28;20029;-64
2021/01/27 07:31:30;;;;;;;17.40;8.07;;;18.90;44.20;;;;;;5049469;28;20037;-64
2021/01/27 07:34:04;;;;;;;21.95;8.48;;;18.90;44.30;;;;;;5047008;28;20033;-60
2021/01/27 07:36:41;;;;;;;18.17;7.63;;;18.90;44.30;;;;;;5029860;28;20559;-64
2021/01/27 07:39:12;;;;;;;19.13;6.70;;;18.90;44.30;;;;;;5046580;28;20797;-64
2021/01/27 07:41:43;;;;;;;19.60;7.13;;;18.80;44.30;;;;;;5030283;28;20044;-64
2021/01/27 07:44:11;;;;;;;27.88;7.25;;;18.80;44.40;;;;;;5046557;28;20029;-64
2021/01/27 07:47:15;;;;;;;23.67;7.07;;;18.80;44.40;;;;;;5030387;28;20048;-67
2021/01/27 07:49:45;;;;;;;19.52;6.82;;;18.80;44.40;;;;;;5064056;28;20041;-63
2021/01/27 07:52:21;;;;;;;16.27;6.20;;;18.80;44.40;;;;;;5068125;28;20609;-63
2021/01/27 07:54:50;;;;;;;16.58;6.65;;;18.80;44.50;;;;;;5050965;28;20047;-63
2021/01/27 07:57:31;;;;;;;18.88;7.18;;;18.80;44.40;;;;;;5050762;28;20102;-63
2021/01/27 08:00:21;;;;;;;12.20;6.00;;;18.80;44.40;;;;;;5032847;28;20166;-63
2021/01/27 08:02:54;;;;;;;19.55;5.85;;;18.80;44.30;;;;;;5049879;28;20037;-63
2021/01/27 08:05:20;;;;;;;16.92;5.90;;;18.80;44.30;;;;;;5068316;28;20028;-63
2021/01/27 08:07:58;;;;;;;27.38;6.78;;;18.70;44.30;;;;;;5049434;28;20087;-63
2021/01/27 08:10:27;;;;;;;21.52;6.15;;;18.70;44.40;;;;;;5059741;28;20118;-64
2021/01/27 08:12:56;;;;;;;24.58;7.15;;;18.70;45.00;;;;;;5050858;28;20071;-63
2021/01/27 08:15:24;;;;;;;29.63;6.88;;;18.80;44.30;;;;;;5043498;28;20603;-64
2021/01/27 08:17:55;;;;;;;19.23;5.82;;;18.70;45.00;;;;;;5067527;28;20029;-61
2021/01/27 08:20:26;;;;;;;30.08;6.20;;;18.70;44.30;;;;;;5067824;28;20062;-63
2021/01/27 08:23:02;;;;;;;24.27;6.03;;;18.80;44.40;;;;;;5049929;28;20029;-63
2021/01/27 08:25:47;;;;;;;27.20;5.88;;;18.70;44.30;;;;;;5049873;28;20029;-63
2021/01/27 08:28:36;;;;;;;22.65;6.38;;;18.70;44.30;;;;;;5067110;28;20891;-64
2021/01/27 08:31:07;;;;;;;21.67;5.43;;;18.70;44.30;;;;;;5059038;28;20463;-64
2021/01/27 08:33:47;;;;;;;22.48;5.13;;;18.70;44.30;;;;;;5068240;28;20025;-63
2021/01/27 08:36:28;;;;;;;19.75;4.70;;;18.70;44.30;;;;;;5067255;28;20517;-64
2021/01/27 08:38:56;;;;;;;16.48;4.20;;;18.70;44.30;;;;;;5067436;28;20140;-63
2021/01/27 08:41:55;;;;;;;22.75;6.55;;;18.80;44.60;;;;;;5067229;28;20025;-64
2021/01/27 08:44:21;;;;;;;14.68;4.93;;;18.80;44.40;;;;;;5067169;28;20040;-64
2021/01/27 08:46:47;;;;;;;19.13;4.93;;;18.80;44.50;;;;;;5066820;28;20024;-64
2021/01/27 08:49:36;;;;;;;17.30;4.80;;;18.80;44.50;;;;;;5050459;28;20032;-60
2021/01/27 08:52:10;;;;;;;14.32;4.35;;;18.80;44.60;;;;;;5067036;28;20052;-63
2021/01/27 08:54:42;;;;;;;13.45;4.55;;;18.80;44.70;;;;;;5050931;28;20045;-61
2021/01/27 08:57:36;;;;;;;16.15;4.72;;;18.90;44.80;;;;;;5066925;28;20490;-62
2021/01/27 09:00:34;;;;;;;13.18;3.88;;;18.90;44.80;;;;;;5049300;28;20028;-62
2021/01/27 09:03:02;;;;;;;8.57;3.05;;;18.90;44.70;;;;;;5065589;28;20093;-61
2021/01/27 09:05:27;;;;;;;10.63;4.18;;;18.80;44.70;;;;;;5049515;28;20033;-61
2021/01/27 09:08:23;;;;;;;11.25;4.13;;;18.90;44.70;;;;;;5066629;28;20039;-57
2021/01/27 09:10:57;;;;;;;12.48;3.10;;;18.90;44.80;;;;;;5066188;28;20064;-63
2021/01/27 09:13:23;;;;;;;9.45;3.53;;;18.90;44.70;;;;;;5066845;28;20033;-62
2021/01/27 09:15:56;;;;;;;10.02;3.35;;;18.90;44.70;;;;;;5066130;28;20029;-63
2021/01/27 09:18:22;;;;;;;9.38;3.92;;;18.90;44.70;;;;;;5066747;28;20029;-62
2021/01/27 09:20:48;;;;;;;11.98;3.90;;;18.90;44.70;;;;;;5066838;28;20036;-63
2021/01/27 09:23:15;;;;;;;10.73;3.80;;;18.90;44.70;;;;;;5049247;28;20221;-62
2021/01/27 09:25:45;;;;;;;6.45;2.85;;;18.90;44.70;;;;;;5048794;28;20017;-62
2021/01/27 09:28:11;;;;;;;8.63;3.75;;;18.90;44.70;;;;;;5066951;28;20024;-59
2021/01/27 09:30:36;;;;;;;8.70;2.90;;;18.90;44.60;;;;;;5066175;28;20028;-62
2021/01/27 09:33:12;;;;;;;9.25;3.42;;;18.90;44.60;;;;;;5048537;28;20192;-63
2021/01/27 09:35:38;;;;;;;8.77;3.00;;;18.90;44.60;;;;;;5066491;28;20123;-62
2021/01/27 09:38:08;;;;;;;8.43;3.25;;;19.00;44.60;;;;;;5048816;28;20115;-62
2021/01/27 09:40:37;;;;;;;7.60;3.35;;;18.90;44.60;;;;;;5048903;28;20032;-63
2021/01/27 09:43:04;;;;;;;9.13;3.17;;;18.90;44.50;;;;;;5066453;28;20028;-62
2021/01/27 09:45:31;;;;;;;6.88;3.30;;;19.00;44.60;;;;;;5048377;28;20033;-61
2021/01/27 09:47:57;;;;;;;9.82;2.90;;;19.00;44.50;;;;;;5048627;28;20047;-63
2021/01/27 09:50:23;;;;;;;8.80;2.90;;;19.00;44.60;;;;;;5048803;28;20036;-62
2021/01/27 09:52:54;;;;;;;9.10;3.17;;;19.00;44.60;;;;;;5048431;28;20033;-64
2021/01/27 09:55:19;;;;;;;8.45;2.95;;;19.00;44.60;;;;;;5048218;28;20109;-62
2021/01/27 09:57:44;;;;;;;9.15;3.50;;;19.00;44.50;;;;;;5048763;28;20486;-62
2021/01/27 10:00:22;;;;;;;7.50;2.85;;;19.00;44.50;;;;;;5048148;28;20032;-62
2021/01/27 10:02:47;;;;;;;6.60;2.55;;;19.00;44.50;;;;;;5048077;28;20020;-61
2021/01/27 10:05:51;;;;;;;4.55;2.70;;;19.00;44.50;;;;;;5048402;28;20523;-61
2021/01/27 10:08:35;;;;;;;7.13;2.95;;;19.10;44.60;;;;;;4945813;28;20493;-62
2021/01/27 10:11:05;;;;;;;8.82;3.05;;;19.10;44.70;;;;;;4948359;28;20031;-63
2021/01/27 10:13:34;;;;;;;8.98;3.00;;;19.10;44.80;;;;;;5009436;28;20017;-63
2021/01/27 10:16:12;;;;;;;7.45;2.17;;;19.10;44.80;;;;;;5048436;28;20090;-60
2021/01/27 10:18:39;;;;;;;7.25;2.97;;;19.20;44.80;;;;;;5047913;28;20079;-62
2021/01/27 10:21:10;;;;;;;10.85;3.08;;;19.20;44.90;;;;;;5065705;28;20060;-62
2021/01/27 10:23:38;;;;;;;11.23;3.30;;;19.20;45.00;;;;;;5047888;28;20040;-63
2021/01/27 10:26:38;;;;;;;4.88;1.95;;;19.20;45.00;;;;;;5065189;28;20028;-63
2021/01/27 10:29:16;;;;;;;10.93;3.35;;;19.20;44.90;;;;;;5065012;28;20058;-63
2021/01/27 10:31:51;;;;;;;6.63;2.45;;;19.20;45.00;;;;;;5060307;28;20562;-62
2021/01/27 10:34:42;;;;;;;7.10;3.10;;;19.20;44.90;;;;;;5064248;28;21709;-60
2021/01/27 10:37:36;;;;;;;8.68;2.58;;;19.20;44.80;;;;;;5065375;28;20033;-63
2021/01/27 10:40:20;;;;;;;8.05;2.97;;;19.20;44.80;;;;;;5065488;28;20032;-63
2021/01/27 10:42:58;;;;;;;6.07;2.33;;;19.30;44.80;;;;;;5064595;28;20103;-63
2021/01/27 10:45:37;;;;;;;6.25;2.85;;;19.20;45.30;;;;;;5064756;28;20071;-63
2021/01/27 10:48:11;;;;;;;5.43;2.25;;;19.20;44.60;;;;;;5046998;28;20028;-62
2021/01/27 10:50:57;;;;;;;10.38;2.50;;;19.30;44.60;;;;;;5065303;28;20055;-62
2021/01/27 10:53:23;;;;;;;5.22;2.42;;;19.30;44.60;;;;;;5065123;28;20100;-63
2021/01/27 10:55:55;;;;;;;4.38;2.10;;;19.30;44.40;;;;;;5047283;28;20033;-63
2021/01/27 10:58:21;;;;;;;5.43;2.20;;;19.30;44.40;;;;;;5064668;28;20458;-61
2021/01/27 11:00:46;;;;;;;4.22;2.00;;;19.30;44.40;;;;;;5030612;28;20115;-63
2021/01/27 11:03:13;;;;;;;4.22;2.15;;;19.40;44.40;;;;;;5065243;28;20028;-63
2021/01/27 11:05:38;;;;;;;8.60;2.10;;;19.30;44.30;;;;;;5046901;28;20033;-62
2021/01/27 11:08:04;;;;;;;7.00;2.42;;;19.30;44.20;;;;;;5065096;28;20495;-63
2021/01/27 11:10:30;;;;;;;4.03;2.10;;;19.30;44.20;;;;;;5047025;28;20040;-61
2021/01/27 11:12:56;;;;;;;4.75;2.10;;;19.40;44.30;;;;;;5064252;28;20040;-64
2021/01/27 11:15:21;;;;;;;4.40;2.17;;;19.40;44.20;;;;;;5065069;28;20032;-61
2021/01/27 11:17:48;;;;;;;3.67;2.03;;;19.40;44.20;;;;;;5064562;28;20035;-64
2021/01/27 11:20:14;;;;;;;2.70;1.65;;;19.40;44.10;;;;;;5064685;28;20027;-63
2021/01/27 11:22:40;;;;;;;3.40;2.03;;;19.40;44.10;;;;;;5064587;28;20032;-63
2021/01/27 11:25:05;;;;;;;4.60;2.45;;;19.40;44.10;;;;;;5063626;28;20078;-64
2021/01/27 11:27:31;;;;;;;3.22;1.80;;;19.50;44.10;;;;;;5063758;28;20025;-64
2021/01/27 11:29:56;;;;;;;4.40;2.20;;;19.50;44.00;;;;;;5064608;28;20028;-64
2021/01/27 11:32:22;;;;;;;6.47;2.17;;;19.50;44.00;;;;;;5065130;28;20116;-63
2021/01/27 11:34:47;;;;;;;3.60;1.80;;;19.50;44.00;;;;;;5064687;28;20028;-64
2021/01/27 11:37:13;;;;;;;4.50;1.63;;;19.50;44.00;;;;;;5064323;28;20039;-63
2021/01/27 11:39:38;;;;;;;2.67;1.63;;;19.50;44.00;;;;;;5064273;28;20036;-63
2021/01/27 11:42:04;;;;;;;2.92;1.70;;;19.50;44.00;;;;;;5064531;28;20031;-63
2021/01/27 11:44:29;;;;;;;2.30;1.75;;;19.50;43.90;;;;;;5064241;28;20032;-63
2021/01/27 11:46:55;;;;;;;2.80;1.98;;;19.50;43.90;;;;;;5064385;28;20045;-63
2021/01/27 11:49:20;;;;;;;3.25;1.90;;;19.50;43.90;;;;;;5046438;28;20021;-63
2021/01/27 11:51:46;;;;;;;3.13;1.50;;;19.50;43.90;;;;;;5064252;28;20046;-63
2021/01/27 11:54:11;;;;;;;2.90;1.70;;;19.40;43.90;;;;;;5064160;28;20029;-63
2021/01/27 11:56:37;;;;;;;2.97;1.85;;;19.40;43.90;;;;;;5064040;28;20036;-64
2021/01/27 11:59:03;;;;;;;2.53;1.67;;;19.40;44.00;;;;;;5064533;28;20487;-63
2021/01/27 12:01:29;;;;;;;2.83;2.00;;;19.40;44.00;;;;;;5064562;28;20074;-63
2021/01/27 12:03:54;;;;;;;2.60;1.58;;;19.30;44.00;;;;;;5063919;28;20449;-64
2021/01/27 12:06:20;;;;;;;2.80;2.10;;;19.30;44.00;;;;;;5064184;28;20024;-63
2021/01/27 12:08:45;;;;;;;4.55;2.08;;;19.30;44.00;;;;;;5045887;28;20068;-63
2021/01/27 12:11:11;;;;;;;2.35;1.40;;;19.30;44.10;;;;;;5064657;28;20494;-63
2021/01/27 12:13:36;;;;;;;3.13;1.27;;;19.30;44.10;;;;;;5064263;28;20067;-62
2021/01/27 12:16:02;;;;;;;1.88;1.38;;;19.30;44.10;;;;;;5063639;28;20035;-64
2021/01/27 12:18:27;;;;;;;2.95;1.42;;;19.30;44.10;;;;;;5046729;28;20098;-63
2021/01/27 12:20:53;;;;;;;4.00;1.42;;;19.30;44.00;;;;;;5064185;28;20105;-63
2021/01/27 12:23:19;;;;;;;2.40;1.67;;;19.30;44.00;;;;;;5063823;28;20035;-63
2021/01/27 12:25:45;;;;;;;2.65;1.50;;;19.30;44.70;;;;;;5063769;28;20083;-64
2021/01/27 12:28:11;;;;;;;1.75;1.40;;;19.30;44.00;;;;;;5063918;28;20384;-63
2021/01/27 12:30:37;;;;;;;1.75;1.48;;;19.30;44.00;;;;;;5063882;28;20024;-63
2021/01/27 12:33:02;;;;;;;2.88;1.52;;;19.30;44.00;;;;;;5064023;28;20028;-64
2021/01/27 12:35:28;;;;;;;2.65;1.30;;;19.30;43.90;;;;;;5064359;28;20029;-64
2021/01/27 12:37:53;;;;;;;2.28;1.80;;;19.30;43.90;;;;;;5066913;28;20086;-64
2021/01/27 12:40:20;;;;;;;1.77;1.20;;;19.30;44.00;;;;;;5067523;28;20025;-63
2021/01/27 12:42:45;;;;;;;2.55;1.70;;;19.30;44.00;;;;;;5067605;28;20178;-63
2021/01/27 12:45:13;;;;;;;2.92;1.33;;;19.30;43.90;;;;;;5067356;28;20538;-63
2021/01/27 12:47:38;;;;;;;2.22;1.40;;;19.30;43.90;;;;;;5067005;28;20033;-62
2021/01/27 12:50:05;;;;;;;2.15;1.45;;;19.30;43.90;;;;;;5067298;28;20020;-61
2021/01/27 12:52:30;;;;;;;2.88;1.48;;;19.40;44.00;;;;;;5050310;28;20459;-63
2021/01/27 12:54:56;;;;;;;2.30;1.48;;;19.40;44.00;;;;;;5067656;28;20113;-64
2021/01/27 12:57:21;;;;;;;3.67;1.60;;;19.30;44.00;;;;;;5067108;28;20562;-65
2021/01/27 12:59:46;;;;;;;2.25;1.20;;;19.40;44.20;;;;;;5067009;28;20043;-63
2021/01/27 13:02:12;;;;;;;3.33;1.55;;;19.50;44.30;;;;;;5067275;28;20024;-60
2021/01/27 13:04:38;;;;;;;3.80;1.48;;;19.50;44.30;;;;;;5067246;28;20265;-65
2021/01/27 13:07:04;;;;;;;3.75;1.88;;;19.50;44.50;;;;;;5066681;28;20040;-64
2021/01/27 13:09:29;;;;;;;4.35;2.67;;;19.50;44.60;;;;;;5067361;28;20078;-65